Eufaula, Oklahoma
Current Conditions -  °F | °C
As of 12:55 PM on Friday 21 Nov 2014 (Local Time) from KGZL Reporting Station
Overcast Overcast  
Wind Chill: 55°   Ceiling: 1700
Heat Index: 55°   Visibility: 10mi
Dew Point: 41°   Wind: 14mph
Humidity: 58%   Direction: 120°ESE
Pressure: 30.13"   Gusts: NA
Location:  35.29°N, 95.58°W
Report Text: KGZL 211855Z AUTO 12012KT 10SM OVC017 13/05 A3013 RMK AO2
Loading
Personal Weather Stations






























Interactive Weather Map New forecast layout! Learn more

10-Day Weather Forecast

Advertisements
Track Severe Weather on mobile